KMRF/MRF METAR and TAF weather

Enter ICAO airport designator
Station Type Date Time Source
KMRF METAR 2021/03/03 19:56 UTC NOAA

KMRF 031956Z AUTO VRB06KT 10SM CLR 22/M07 A3014 RMK AO2 SLP182 T02221072


Station Type Date Time Source
KMRF Decoded METAR 2021/03/03 19:56 UTC NOAA

Marfa, TX, United States (KMRF) 30-22N 104-01W 1481M
Mar 03, 2021 - 02:56 PM EST / 2021.03.03 1956 UTC
Wind: Variable at 7 MPH (6 KT):0
Visibility: 10 mile(s):0
Sky conditions: clear
Temperature: 72.0 F (22.2 C)
Dew Point: 19.0 F (-7.2 C)
Relative Humidity: 13%
Pressure (altimeter): 30.14 in. Hg (1020 hPa)
ob: KMRF 031956Z AUTO VRB06KT 10SM CLR 22/M07 A3014 RMK AO2 SLP182 T02221072
cycle: 20

Station Type Date Time Source
KMRF TAF UTC NOAA

Error!

Example: see airport list